Time;durP1;ratioP1;P1;durP2;ratioP2;P2;SDS_P1;SDS_P2;PMS_P1;PMS_P2;Temp;Humidity;BMP_temperature;BMP_pressure;BME280_temperature;BME280_humidity;BME280_pressure;Samples;Min_cycle;Max_cycle;Signal;HPM_P1;HPM_P2
2021/11/11 00:00:44;;;;;;;37.90;17.33;;;;;;;3.74;100.00;101716.53;5094356;28;20040;-70
2021/11/11 00:03:12;;;;;;;39.67;18.33;;;;;;;3.67;100.00;101714.84;5094255;28;20040;-70
2021/11/11 00:05:40;;;;;;;43.63;19.45;;;;;;;3.69;100.00;101710.44;5094023;28;20477;-70
2021/11/11 00:08:10;;;;;;;40.95;17.60;;;;;;;3.66;100.00;101710.44;5093593;28;20068;-70
2021/11/11 00:10:39;;;;;;;42.67;16.95;;;;;;;3.73;100.00;101707.75;5092971;28;20040;-70
2021/11/11 00:13:07;;;;;;;39.65;17.35;;;;;;;3.78;100.00;101691.88;5093495;28;20044;-71
2021/11/11 00:15:36;;;;;;;39.95;17.65;;;;;;;3.79;100.00;101695.41;5092839;28;20052;-71
2021/11/11 00:18:05;;;;;;;43.80;18.10;;;;;;;3.91;100.00;101690.84;5093767;28;20047;-68
2021/11/11 00:20:34;;;;;;;39.83;18.67;;;;;;;3.86;100.00;101690.03;5093986;28;20078;-69
2021/11/11 00:23:02;;;;;;;40.45;18.02;;;;;;;3.85;100.00;101687.41;5092244;28;20048;-69
2021/11/11 00:25:30;;;;;;;42.17;18.73;;;;;;;3.72;100.00;101694.56;5093902;28;20094;-69
2021/11/11 00:27:59;;;;;;;38.25;17.27;;;;;;;3.79;100.00;101687.47;5093502;28;20048;-70
2021/11/11 00:30:28;;;;;;;43.95;18.52;;;;;;;3.62;100.00;101692.91;5093815;28;20060;-69
2021/11/11 00:32:56;;;;;;;39.67;18.02;;;;;;;3.81;100.00;101689.19;5093571;28;20131;-69
2021/11/11 00:35:28;;;;;;;39.67;17.80;;;;;;;3.74;100.00;101682.22;5093949;28;20097;-68
2021/11/11 00:38:01;;;;;;;39.97;17.83;;;;;;;3.73;100.00;101676.06;5093502;28;20051;-70
2021/11/11 00:40:30;;;;;;;40.15;17.58;;;;;;;3.63;100.00;101682.31;5093784;28;20036;-69
2021/11/11 00:42:58;;;;;;;48.95;19.33;;;;;;;3.64;100.00;101680.56;5093314;28;20050;-70
2021/11/11 00:45:28;;;;;;;43.08;18.08;;;;;;;3.58;100.00;101675.34;5093536;28;20039;-70
2021/11/11 00:47:56;;;;;;;43.65;18.45;;;;;;;3.69;100.00;101670.84;5092980;28;20126;-70
2021/11/11 00:50:29;;;;;;;40.67;18.88;;;;;;;3.67;100.00;101677.91;5093459;28;20135;-69
2021/11/11 00:52:57;;;;;;;39.10;17.83;;;;;;;3.67;100.00;101675.28;5093074;28;20507;-70
2021/11/11 00:55:29;;;;;;;40.67;17.63;;;;;;;3.81;100.00;101673.38;5093714;28;20052;-69
2021/11/11 00:57:58;;;;;;;36.60;17.38;;;;;;;3.72;100.00;101668.16;5092826;28;20048;-70
2021/11/11 01:00:27;;;;;;;39.80;18.25;;;;;;;3.60;100.00;101669.16;5093255;28;20044;-69
2021/11/11 01:02:57;;;;;;;38.10;16.50;;;;;;;3.64;100.00;101659.44;5093064;28;20040;-70
2021/11/11 01:05:26;;;;;;;37.95;17.92;;;;;;;3.45;100.00;101651.69;5093335;28;20101;-69
2021/11/11 01:07:55;;;;;;;36.20;15.75;;;;;;;3.53;100.00;101648.13;5092634;28;20089;-70
2021/11/11 01:10:24;;;;;;;38.75;16.75;;;;;;;3.58;100.00;101648.97;5093305;28;20478;-69
2021/11/11 01:12:53;;;;;;;35.00;16.13;;;;;;;3.63;100.00;101645.38;5093166;28;20040;-75
2021/11/11 01:15:24;;;;;;;36.90;15.98;;;;;;;3.58;100.00;101641.06;5093000;28;20040;-70
2021/11/11 01:17:53;;;;;;;31.98;14.95;;;;;;;3.44;100.00;101641.16;5093001;28;20040;-75
2021/11/11 01:20:22;;;;;;;38.15;17.17;;;;;;;3.49;100.00;101641.13;5092796;28;20455;-70
2021/11/11 01:22:54;;;;;;;39.20;16.40;;;;;;;3.43;100.00;101635.00;5095140;28;20043;-71
2021/11/11 01:25:26;;;;;;;35.15;16.33;;;;;;;3.43;100.00;101623.59;5097395;28;20040;-71
2021/11/11 01:27:55;;;;;;;38.35;16.30;;;;;;;3.52;100.00;101622.63;5097150;28;20449;-71
2021/11/11 01:30:24;;;;;;;37.55;17.38;;;;;;;3.48;100.00;101629.72;5097274;28;20447;-71
2021/11/11 01:32:52;;;;;;;40.92;16.50;;;;;;;3.45;100.00;101625.31;5096928;28;20405;-72
2021/11/11 01:35:21;;;;;;;37.70;16.13;;;;;;;3.49;100.00;101614.75;5097088;28;20050;-72
2021/11/11 01:37:50;;;;;;;34.58;17.02;;;;;;;3.51;100.00;101616.47;5097136;28;20126;-71
2021/11/11 01:40:21;;;;;;;35.72;16.35;;;;;;;3.24;100.00;101611.44;5096622;28;20048;-72
2021/11/11 01:42:52;;;;;;;34.00;15.15;;;;;;;3.47;100.00;101604.19;5097126;28;20051;-70
2021/11/11 01:45:25;;;;;;;36.95;16.40;;;;;;;3.40;100.00;101602.53;5097115;28;20044;-73
2021/11/11 01:47:53;;;;;;;37.35;16.80;;;;;;;3.34;100.00;101602.56;5097055;28;20047;-73
2021/11/11 01:50:22;;;;;;;42.05;17.60;;;;;;;3.35;100.00;101594.63;5096860;28;20036;-73
2021/11/11 01:52:51;;;;;;;47.05;18.60;;;;;;;3.20;100.00;101597.44;5096523;28;20503;-72
2021/11/11 01:55:22;;;;;;;42.13;18.02;;;;;;;3.28;100.00;101587.69;5096611;28;20075;-73
2021/11/11 01:57:51;;;;;;;38.47;17.45;;;;;;;3.32;100.00;101584.13;5096815;28;20048;-73
2021/11/11 02:00:23;;;;;;;56.03;17.70;;;;;;;3.16;100.00;101579.88;5096303;28;20040;-73
2021/11/11 02:02:56;;;;;;;39.50;17.67;;;;;;;3.38;100.00;101578.81;5096459;28;20115;-73
2021/11/11 02:05:24;;;;;;;40.38;17.42;;;;;;;3.37;100.00;101576.16;5096648;28;20420;-73
2021/11/11 02:07:53;;;;;;;39.08;17.90;;;;;;;3.29;100.00;101573.63;5096255;28;20040;-73
2021/11/11 02:10:26;;;;;;;36.17;16.33;;;;;;;3.25;100.00;101571.88;5096528;28;20493;-74
2021/11/11 02:12:54;;;;;;;41.28;17.40;;;;;;;3.22;100.00;101571.91;5096561;28;20127;-74
2021/11/11 02:15:23;;;;;;;36.22;16.23;;;;;;;3.24;100.00;101580.69;5096573;28;20068;-74
2021/11/11 02:17:52;;;;;;;39.00;17.23;;;;;;;3.07;100.00;101580.81;5096105;28;20071;-74
2021/11/11 02:20:24;;;;;;;37.45;16.80;;;;;;;3.28;100.00;101581.50;5095656;28;20044;-73
2021/11/11 02:22:54;;;;;;;35.00;14.85;;;;;;;3.26;100.00;101578.91;5095984;28;20127;-73
2021/11/11 02:25:24;;;;;;;36.13;16.50;;;;;;;3.12;100.00;101576.38;5095951;28;20036;-73
2021/11/11 02:27:55;;;;;;;35.08;16.95;;;;;;;3.14;100.00;101584.28;5096323;28;20068;-73
2021/11/11 02:30:25;;;;;;;32.17;15.52;;;;;;;3.05;100.00;101581.72;5096044;28;20161;-73
2021/11/11 02:32:56;;;;;;;36.10;16.65;;;;;;;3.07;100.00;101585.22;5096222;28;20040;-72
2021/11/11 02:35:27;;;;;;;35.03;16.92;;;;;;;3.02;100.00;101587.03;5128538;27;20044;-72
2021/11/11 02:37:55;;;;;;;37.05;17.35;;;;;;;3.00;100.00;101583.53;5096072;28;20123;-72
2021/11/11 02:40:28;;;;;;;33.75;15.73;;;;;;;2.93;100.00;101579.19;5096009;28;20042;-72
2021/11/11 02:42:56;;;;;;;36.83;16.67;;;;;;;2.93;100.00;101580.06;5096059;28;20044;-72
2021/11/11 02:45:27;;;;;;;34.70;16.15;;;;;;;2.97;100.00;101576.50;5095847;28;20051;-72
2021/11/11 02:47:57;;;;;;;35.25;17.85;;;;;;;3.11;100.00;101571.13;5095860;28;20066;-72
2021/11/11 02:50:29;;;;;;;34.90;16.88;;;;;;;3.17;100.00;101573.69;5095728;28;20400;-72
2021/11/11 02:52:58;;;;;;;38.65;17.13;;;;;;;3.17;100.00;101573.69;5095271;28;20090;-72
2021/11/11 02:55:27;;;;;;;33.33;15.55;;;;;;;3.33;100.00;101559.50;5095972;28;20481;-71
2021/11/11 02:57:58;;;;;;;33.42;15.38;;;;;;;3.27;100.00;101564.81;5095623;28;20040;-71
2021/11/11 03:00:29;;;;;;;37.58;16.42;;;;;;;3.35;100.00;101568.25;5095680;28;20093;-72
2021/11/11 03:02:58;;;;;;;36.15;16.88;;;;;;;3.17;100.00;101557.88;5095642;28;20120;-72
2021/11/11 03:05:33;;;;;;;32.83;16.10;;;;;;;3.23;100.00;101560.47;5095756;28;20424;-72
2021/11/11 03:08:01;;;;;;;31.63;15.10;;;;;;;3.24;100.00;101550.81;5094930;28;20048;-71
2021/11/11 03:10:33;;;;;;;34.65;16.08;;;;;;;3.22;100.00;101550.81;5095575;28;20366;-70
2021/11/11 03:13:01;;;;;;;33.47;15.20;;;;;;;3.14;100.00;101548.25;5094965;28;20097;-74
2021/11/11 03:15:30;;;;;;;34.30;15.30;;;;;;;3.06;100.00;101538.66;5095371;28;20047;-70
2021/11/11 03:18:00;;;;;;;35.25;16.67;;;;;;;2.87;100.00;101536.16;5095223;28;20044;-70
2021/11/11 03:20:30;;;;;;;33.00;14.77;;;;;;;2.84;100.00;101537.97;5095211;28;20043;-70
2021/11/11 03:22:59;;;;;;;34.67;15.45;;;;;;;2.75;100.00;101541.53;5095195;28;20127;-71
2021/11/11 03:25:29;;;;;;;34.40;15.35;;;;;;;2.84;100.00;101536.22;5095234;28;20051;-72
2021/11/11 03:27:59;;;;;;;37.15;15.43;;;;;;;2.67;100.00;101527.56;5095086;28;20044;-71
2021/11/11 03:30:29;;;;;;;33.47;14.98;;;;;;;2.65;100.00;101531.97;5094669;28;20043;-71
2021/11/11 03:32:58;;;;;;;52.67;17.00;;;;;;;2.50;100.00;101535.56;5094703;28;20049;-71
2021/11/11 03:35:27;;;;;;;42.25;15.77;;;;;;;2.44;100.00;101533.00;5094598;28;20101;-71
2021/11/11 03:37:59;;;;;;;45.00;16.60;;;;;;;2.59;100.00;101543.41;5094873;28;20044;-71
2021/11/11 03:40:32;;;;;;;47.00;16.90;;;;;;;2.60;100.00;101528.47;5095004;28;20453;-71
2021/11/11 03:43:01;;;;;;;42.33;15.95;;;;;;;2.60;100.00;101517.94;5094333;28;20040;-71
2021/11/11 03:45:30;;;;;;;44.90;15.45;;;;;;;2.44;100.00;101514.56;5094702;28;20044;-70
2021/11/11 03:47:59;;;;;;;56.08;14.70;;;;;;;2.39;100.00;101513.69;5094553;28;20098;-70
2021/11/11 03:50:28;;;;;;;47.42;16.27;;;;;;;2.35;100.00;101506.72;5094015;28;20056;-71
2021/11/11 03:52:58;;;;;;;68.15;16.35;;;;;;;2.28;100.00;101510.25;5094370;28;20044;-70
2021/11/11 03:55:26;;;;;;;40.97;15.75;;;;;;;2.35;100.00;101511.09;5094147;28;20048;-70
2021/11/11 03:57:56;;;;;;;60.42;18.30;;;;;;;2.25;100.00;101519.06;5094141;28;20048;-71
2021/11/11 04:00:25;;;;;;;43.92;17.15;;;;;;;2.15;100.00;101516.50;5094090;28;20048;-71
2021/11/11 04:02:54;;;;;;;52.38;16.40;;;;;;;2.50;100.00;101516.25;5094316;28;20051;-71
2021/11/11 04:05:22;;;;;;;78.50;16.40;;;;;;;2.42;100.00;101512.81;5092328;28;20048;-70
2021/11/11 04:07:51;;;;;;;54.67;16.13;;;;;;;2.26;100.00;101520.81;5094379;28;20139;-71
2021/11/11 04:10:20;;;;;;;80.45;18.48;;;;;;;2.24;100.00;101527.84;5093859;28;20040;-72
2021/11/11 04:13:01;;;;;;;69.28;16.08;;;;;;;2.29;100.00;101518.16;5094270;28;20047;-71
2021/11/11 04:15:30;;;;;;;82.93;15.65;;;;;;;2.32;100.00;101521.63;5093713;28;20465;-71
2021/11/11 04:17:59;;;;;;;92.32;16.67;;;;;;;2.20;100.00;101522.59;5093828;28;20485;-70
2021/11/11 04:20:28;;;;;;;98.82;18.02;;;;;;;2.25;100.00;101513.78;5093418;28;20122;-71
2021/11/11 04:22:56;;;;;;;130.18;18.63;;;;;;;2.11;100.00;101523.50;5094186;28;20040;-71
2021/11/11 04:25:31;;;;;;;73.20;16.40;;;;;;;2.15;100.00;101522.63;5093596;28;20051;-71
2021/11/11 04:28:03;;;;;;;74.38;16.70;;;;;;;2.20;100.00;101526.09;5093627;28;20094;-72
2021/11/11 04:30:33;;;;;;;46.63;15.80;;;;;;;2.16;100.00;101521.75;5093921;28;20408;-72
2021/11/11 04:33:04;;;;;;;100.18;19.30;;;;;;;2.34;100.00;101523.41;5093907;28;20101;-72
2021/11/11 04:35:33;;;;;;;66.80;17.52;;;;;;;2.22;100.00;101527.00;5093567;28;20048;-72
2021/11/11 04:38:07;;;;;;;68.20;16.95;;;;;;;2.27;100.00;101525.19;5093747;28;20055;-72
2021/11/11 04:40:59;;;;;;;69.65;17.48;;;;;;;2.27;100.00;101525.19;5093713;28;20050;-73
2021/11/11 04:43:49;;;;;;;119.78;18.17;;;;;;;2.17;100.00;101527.88;5093349;28;20393;-73
2021/11/11 04:49:29;;;;;;;97.65;20.10;;;;;;;2.12;100.00;101519.13;5070763;28;20071;-71
2021/11/11 05:03:17;;;;;;;134.20;19.95;;;;;;;2.22;100.00;101511.19;5093149;28;20036;-76
2021/11/11 05:05:46;;;;;;;85.00;18.73;;;;;;;2.16;100.00;101515.59;5093157;28;20044;-71
2021/11/11 05:08:16;;;;;;;92.30;17.30;;;;;;;2.28;100.00;101511.13;5092755;28;20454;-71
2021/11/11 05:10:48;;;;;;;51.03;17.48;;;;;;;2.18;100.00;101513.84;5093222;28;20036;-71
2021/11/11 05:13:20;;;;;;;45.33;17.88;;;;;;;2.21;100.00;101519.94;5092978;28;20040;-73
2021/11/11 05:15:48;;;;;;;65.25;17.58;;;;;;;2.27;100.00;101514.66;5093483;28;20050;-70
2021/11/11 05:18:16;;;;;;;70.88;16.05;;;;;;;2.32;100.00;101506.75;5092889;28;20047;-71
2021/11/11 05:20:45;;;;;;;45.95;17.05;;;;;;;2.13;100.00;101511.25;5092873;28;20054;-71
2021/11/11 05:23:13;;;;;;;67.10;16.83;;;;;;;2.16;100.00;101513.84;5092730;28;20530;-72
2021/11/11 05:25:42;;;;;;;67.25;17.27;;;;;;;2.17;100.00;101512.97;5093136;28;20141;-72
2021/11/11 05:28:10;;;;;;;53.35;16.83;;;;;;;2.19;100.00;101515.59;5092648;28;20055;-74
2021/11/11 05:30:40;;;;;;;72.85;16.35;;;;;;;2.34;100.00;101519.91;5093072;28;20040;-72
2021/11/11 05:33:08;;;;;;;57.80;18.02;;;;;;;2.07;100.00;101520.91;5091674;28;20548;-72
2021/11/11 05:35:37;;;;;;;62.85;18.67;;;;;;;2.10;100.00;101518.25;5092998;28;20048;-72
2021/11/11 05:38:05;;;;;;;92.18;18.27;;;;;;;1.97;100.00;101514.81;5093058;28;20048;-72
2021/11/11 05:40:33;;;;;;;67.97;17.02;;;;;;;2.05;100.00;101514.78;5092280;28;20131;-72
2021/11/11 05:43:02;;;;;;;74.03;17.60;;;;;;;2.10;100.00;101513.88;5092788;28;20055;-72
2021/11/11 05:45:30;;;;;;;64.53;18.15;;;;;;;2.00;100.00;101515.69;5092583;28;20050;-72
2021/11/11 05:47:59;;;;;;;57.10;16.67;;;;;;;2.06;100.00;101516.53;5092827;28;20119;-71
2021/11/11 05:50:28;;;;;;;48.83;17.70;;;;;;;2.16;100.00;101534.03;5092543;28;20061;-71
2021/11/11 05:52:56;;;;;;;133.57;20.02;;;;;;;1.92;100.00;101532.38;5092339;28;20056;-72
2021/11/11 05:55:25;;;;;;;68.78;18.00;;;;;;;2.02;100.00;101528.81;5092169;28;20051;-72
2021/11/11 05:57:53;;;;;;;111.72;20.15;;;;;;;1.91;100.00;101531.50;5092851;28;20130;-72
2021/11/11 06:00:22;;;;;;;65.57;18.67;;;;;;;2.06;100.00;101533.22;5092326;28;20044;-71
2021/11/11 06:02:51;;;;;;;149.13;20.15;;;;;;;1.99;100.00;101534.97;5093024;28;20413;-70
2021/11/11 06:05:21;;;;;;;154.50;19.67;;;;;;;2.02;100.00;101544.59;5092638;28;20407;-71
2021/11/11 06:07:49;;;;;;;76.10;18.52;;;;;;;2.06;100.00;101535.84;5092727;28;20051;-71
2021/11/11 06:10:18;;;;;;;77.65;17.33;;;;;;;1.98;100.00;101542.88;5095990;28;20397;-71
2021/11/11 06:12:48;;;;;;;95.85;18.55;;;;;;;1.90;100.00;101549.94;5096563;28;20048;-71
2021/11/11 06:15:16;;;;;;;50.90;16.30;;;;;;;1.96;100.00;101542.03;5095809;28;20040;-72
2021/11/11 06:17:45;;;;;;;84.50;16.00;;;;;;;1.94;100.00;101546.44;5095188;28;20059;-72
2021/11/11 06:20:19;;;;;;;99.10;16.48;;;;;;;2.08;100.00;101555.13;5096178;28;20051;-71
2021/11/11 06:22:49;;;;;;;54.50;15.55;;;;;;;2.03;100.00;101543.75;5096594;28;20078;-71
2021/11/11 06:25:18;;;;;;;121.43;17.77;;;;;;;1.97;100.00;101541.16;5095483;28;20048;-71
2021/11/11 06:27:47;;;;;;;91.07;17.08;;;;;;;1.96;100.00;101542.91;5094618;28;20647;-71
2021/11/11 06:30:15;;;;;;;131.32;19.33;;;;;;;2.04;100.00;101549.91;5095893;28;20040;-71
2021/11/11 06:32:44;;;;;;;73.80;18.20;;;;;;;2.13;100.00;101545.47;5095535;28;20039;-72
2021/11/11 06:35:27;;;;;;;105.10;18.10;;;;;;;2.32;100.00;101548.88;5095442;28;20044;-71
2021/11/11 06:37:57;;;;;;;68.93;16.20;;;;;;;2.26;100.00;101541.00;5095681;28;20378;-71
2021/11/11 06:40:25;;;;;;;101.10;17.85;;;;;;;2.22;100.00;101537.53;5095304;28;20084;-71
2021/11/11 06:42:55;;;;;;;55.40;17.58;;;;;;;2.33;100.00;101542.72;5095266;28;20067;-71
2021/11/11 06:45:24;;;;;;;48.72;16.73;;;;;;;2.39;100.00;101544.44;5095081;28;20044;-72
2021/11/11 06:47:53;;;;;;;50.83;17.63;;;;;;;2.52;100.00;101530.31;5095544;28;20040;-71
2021/11/11 06:50:21;;;;;;;45.78;16.20;;;;;;;2.49;100.00;101543.47;5095109;28;20055;-72
2021/11/11 06:52:50;;;;;;;38.97;16.13;;;;;;;2.73;100.00;101547.72;5095295;28;20076;-72
2021/11/11 06:55:21;;;;;;;43.55;16.52;;;;;;;2.73;100.00;101540.69;5095224;28;20046;-76
2021/11/11 06:57:49;;;;;;;43.05;16.17;;;;;;;2.64;100.00;101546.03;5095127;28;20044;-72
2021/11/11 07:00:18;;;;;;;35.20;15.57;;;;;;;2.76;100.00;101543.28;5095193;28;20470;-72
2021/11/11 07:02:47;;;;;;;39.78;15.88;;;;;;;2.69;100.00;101552.13;5095147;28;20048;-72
2021/11/11 07:05:15;;;;;;;53.70;17.27;;;;;;;2.71;100.00;101547.75;5095363;28;20465;-72
2021/11/11 07:07:44;;;;;;;47.03;18.20;;;;;;;2.83;100.00;101558.19;5094975;28;20068;-71
2021/11/11 07:10:13;;;;;;;42.35;16.73;;;;;;;2.83;100.00;101552.91;5094809;28;20040;-72
2021/11/11 07:12:44;;;;;;;54.05;16.08;;;;;;;2.99;100.00;101552.75;5094950;28;20481;-71
2021/11/11 07:15:15;;;;;;;34.97;16.23;;;;;;;3.23;100.00;101546.41;5094835;28;20430;-69
2021/11/11 07:17:46;;;;;;;40.08;17.15;;;;;;;3.19;100.00;101545.59;5094972;28;20044;-68
2021/11/11 07:20:16;;;;;;;52.65;17.55;;;;;;;3.21;100.00;101538.53;5094460;28;20067;-68
2021/11/11 07:22:46;;;;;;;36.55;17.80;;;;;;;3.23;100.00;101530.59;5094786;28;20055;-68
2021/11/11 07:25:17;;;;;;;37.22;15.82;;;;;;;3.16;100.00;101538.56;5094973;28;20040;-73
2021/11/11 07:27:47;;;;;;;35.17;15.85;;;;;;;3.24;100.00;101527.94;5094380;28;20036;-72
2021/11/11 07:30:17;;;;;;;34.60;16.38;;;;;;;3.24;100.00;101538.50;5094785;28;20043;-70
2021/11/11 07:32:46;;;;;;;35.08;16.63;;;;;;;3.29;100.00;101541.97;5087732;28;20044;-72
2021/11/11 07:35:15;;;;;;;36.00;15.98;;;;;;;3.30;100.00;101546.34;5093470;28;20047;-71
2021/11/11 07:37:46;;;;;;;34.03;16.65;;;;;;;3.39;100.00;101535.72;5093513;28;20123;-71
2021/11/11 07:40:18;;;;;;;33.90;16.95;;;;;;;3.50;100.00;101545.28;5093895;28;20451;-72
2021/11/11 07:42:48;;;;;;;31.60;16.23;;;;;;;3.62;100.00;101539.84;5093943;28;20124;-72
2021/11/11 07:45:24;;;;;;;30.90;15.50;;;;;;;3.60;100.00;101544.28;5093765;28;20044;-68
2021/11/11 07:47:55;;;;;;;30.42;15.50;;;;;;;3.53;100.00;101548.75;5098354;28;20058;-72
2021/11/11 07:50:30;;;;;;;32.75;15.52;;;;;;;3.83;100.00;101534.31;5093403;28;20044;-72
2021/11/11 07:53:00;;;;;;;31.98;16.00;;;;;;;3.76;100.00;101542.31;5093510;28;20052;-74
2021/11/11 07:55:29;;;;;;;32.80;16.75;;;;;;;3.68;100.00;101534.53;5092959;28;20100;-74
2021/11/11 07:57:59;;;;;;;31.65;15.98;;;;;;;3.67;100.00;101532.78;5093542;28;20044;-73
2021/11/11 08:00:27;;;;;;;33.17;17.13;;;;;;;3.94;100.00;101527.13;5093361;28;20524;-74
2021/11/11 08:02:55;;;;;;;29.83;15.88;;;;;;;3.86;100.00;101522.84;5093362;28;20433;-74
2021/11/11 08:05:24;;;;;;;30.48;15.32;;;;;;;4.10;100.00;101521.66;5093185;28;20461;-70
2021/11/11 08:07:53;;;;;;;26.30;14.48;;;;;;;4.20;100.00;101518.00;5093394;28;20479;-70
2021/11/11 08:10:23;;;;;;;30.45;16.45;;;;;;;3.98;100.00;101522.72;5093471;28;20055;-71
2021/11/11 08:12:54;;;;;;;28.90;14.85;;;;;;;4.02;100.00;101513.84;5093356;28;20044;-71
2021/11/11 08:15:23;;;;;;;30.60;15.77;;;;;;;4.08;100.00;101513.78;5092927;28;20051;-70
2021/11/11 08:17:52;;;;;;;27.83;15.30;;;;;;;4.20;100.00;101502.16;5092961;28;20071;-71
2021/11/11 08:20:20;;;;;;;28.00;15.85;;;;;;;4.27;100.00;101502.06;5093076;28;20063;-71
2021/11/11 08:22:49;;;;;;;26.77;14.98;;;;;;;4.39;100.00;101494.84;5092239;28;20052;-72
2021/11/11 08:25:19;;;;;;;26.38;14.65;;;;;;;4.62;100.00;101498.00;5092253;28;20345;-72
2021/11/11 08:27:49;;;;;;;25.70;14.27;;;;;;;4.74;100.00;101486.38;5092362;28;20786;-72
2021/11/11 08:30:18;;;;;;;22.52;13.00;;;;;;;4.98;100.00;101487.72;5092567;28;20122;-70
2021/11/11 08:32:51;;;;;;;26.83;14.07;;;;;;;5.01;100.00;101488.53;5091178;28;20399;-71
2021/11/11 08:35:20;;;;;;;24.88;13.40;;;;;;;5.06;100.00;101486.69;5091152;28;20052;-73
2021/11/11 08:37:49;;;;;;;22.52;13.43;;;;;;;5.15;100.00;101486.53;5092380;28;20109;-72
2021/11/11 08:40:18;;;;;;;25.17;13.52;;;;;;;5.22;100.00;101483.78;5092691;28;20036;-73
2021/11/11 08:42:50;;;;;;;24.50;14.27;;;;;;;5.18;100.00;101481.16;5092684;28;20080;-70
2021/11/11 08:45:18;;;;;;;21.42;13.15;;;;;;;5.42;100.00;101478.97;5092322;28;20040;-70
2021/11/11 08:47:49;;;;;;;25.77;14.43;;;;;;;5.44;100.00;101471.88;5092468;28;20078;-73
2021/11/11 08:50:17;;;;;;;24.88;13.82;;;;;;;5.44;100.00;101462.16;5092024;28;20093;-69
2021/11/11 08:52:49;;;;;;;23.40;12.45;;;;;;;5.80;100.00;101461.44;5092152;28;20048;-69
2021/11/11 08:55:20;;;;;;;23.40;12.70;;;;;;;5.88;100.00;101459.47;5091964;28;20568;-71
2021/11/11 08:57:48;;;;;;;20.33;11.27;;;;;;;5.89;100.00;101464.75;5092508;28;20067;-69
2021/11/11 09:00:19;;;;;;;17.63;10.90;;;;;;;5.94;100.00;101462.03;5092902;28;20051;-71
2021/11/11 09:02:52;;;;;;;20.67;11.10;;;;;;;6.02;100.00;101445.06;5091839;28;20127;-71
2021/11/11 09:05:20;;;;;;;21.58;11.32;;;;;;;6.08;100.00;101441.44;5091979;28;20047;-69
2021/11/11 09:07:49;;;;;;;22.48;11.85;;;;;;;6.20;100.00;101445.56;5092475;28;20051;-70
2021/11/11 09:10:20;;;;;;;20.35;11.05;;;;;;;6.32;100.00;101439.97;5092282;28;20119;-70
2021/11/11 09:12:50;;;;;;;19.42;10.52;;;;;;;6.40;100.00;101439.78;5091961;28;20047;-70
2021/11/11 09:15:22;;;;;;;18.60;10.88;;;;;;;6.45;100.00;101440.53;5092398;28;20362;-72
2021/11/11 09:17:53;;;;;;;18.70;11.05;;;;;;;6.63;100.00;101440.09;5092330;28;20036;-73
2021/11/11 09:20:23;;;;;;;19.48;11.15;;;;;;;6.65;100.00;101440.91;5092829;28;20063;-71
2021/11/11 09:22:52;;;;;;;18.20;10.40;;;;;;;6.68;100.00;101440.00;5092080;28;20101;-69
2021/11/11 09:25:22;;;;;;;25.80;11.27;;;;;;;6.60;100.00;101429.56;5091823;28;20124;-73
2021/11/11 09:27:51;;;;;;;18.80;10.95;;;;;;;6.81;100.00;101434.31;5091924;28;20043;-75
2021/11/11 09:30:21;;;;;;;20.67;10.70;;;;;;;6.84;100.00;101434.22;5092543;28;20396;-71
2021/11/11 09:32:50;;;;;;;17.02;9.70;;;;;;;6.88;100.00;101438.56;5091610;28;20481;-71
2021/11/11 09:35:20;;;;;;;23.00;11.23;;;;;;;7.03;100.00;101439.06;5092014;28;20052;-75
2021/11/11 09:37:48;;;;;;;17.48;10.50;;;;;;;7.02;100.00;101435.53;5091518;28;20036;-72
2021/11/11 09:40:22;;;;;;;18.95;11.15;;;;;;;7.12;100.00;101430.84;5092056;28;20044;-72
2021/11/11 09:42:51;;;;;;;15.65;10.23;;;;;;;7.01;100.00;101433.78;5092075;28;20046;-71
2021/11/11 09:45:23;;;;;;;18.17;10.02;;;;;;;7.02;100.00;101432.88;5095742;28;20036;-72
2021/11/11 09:47:52;;;;;;;17.10;10.55;;;;;;;7.06;100.00;101436.34;5095507;28;20040;-73
2021/11/11 09:50:25;;;;;;;18.75;11.27;;;;;;;7.05;100.00;101419.56;5095394;28;20051;-72
2021/11/11 09:52:54;;;;;;;22.85;11.10;;;;;;;7.11;100.00;101429.13;5095136;28;20121;-72
2021/11/11 10:00:59;;;;;;;18.38;9.85;;;;;;;7.38;100.00;101412.44;5095201;28;20047;-76
2021/11/11 10:03:28;;;;;;;16.70;8.82;;;;;;;7.43;100.00;101420.25;5095293;28;20531;-75
2021/11/11 10:05:58;;;;;;;17.42;9.80;;;;;;;7.33;100.00;101413.44;5094640;28;20070;-73
2021/11/11 10:08:35;;;;;;;16.17;9.27;;;;;;;7.36;100.00;101411.59;5095621;28;20489;-73
2021/11/11 10:11:08;;;;;;;17.27;9.60;;;;;;;7.38;100.00;101407.13;5094716;28;20048;-73
2021/11/11 10:13:36;;;;;;;14.50;9.00;;;;;;;7.43;100.00;101399.91;5095799;28;20044;-77
2021/11/11 10:16:13;;;;;;;15.95;9.57;;;;;;;7.33;100.00;101400.19;5095383;28;20060;-74
2021/11/11 10:18:51;;;;;;;22.75;9.70;;;;;;;7.35;100.00;101390.41;5095676;28;20040;-80
2021/11/11 10:21:42;;;;;;;16.02;9.48;;;;;;;7.48;100.00;101391.78;5093861;28;20044;-74
2021/11/11 10:24:23;;;;;;;15.20;8.93;;;;;;;7.49;100.00;101385.56;5095632;28;20109;-78
2021/11/11 10:26:56;;;;;;;15.75;9.30;;;;;;;7.37;100.00;101373.53;5095194;28;20040;-75
2021/11/11 10:29:30;;;;;;;13.93;8.43;;;;;;;7.57;100.00;101364.09;5095472;28;20032;-73
2021/11/11 10:32:04;;;;;;;15.00;8.60;;;;;;;7.56;100.00;101357.06;5094712;28;20036;-73
2021/11/11 10:34:33;;;;;;;17.63;8.57;;;;;;;7.42;100.00;101366.28;5095495;28;20047;-77
2021/11/11 10:37:03;;;;;;;13.70;9.23;;;;;;;7.37;100.00;101359.38;5095051;28;20048;-74
2021/11/11 10:39:33;;;;;;;28.17;9.95;;;;;;;7.52;100.00;101358.03;5095003;28;20044;-78
2021/11/11 10:42:15;;;;;;;15.20;8.95;;;;;;;7.56;100.00;101349.09;5095117;28;20049;-76
2021/11/11 10:44:44;;;;;;;16.70;9.15;;;;;;;7.66;100.00;101347.91;5094561;28;20058;-77
2021/11/11 10:47:20;;;;;;;16.95;8.30;;;;;;;7.57;100.00;101348.16;5095235;28;20032;-74
2021/11/11 10:49:49;;;;;;;14.05;7.97;;;;;;;7.59;100.00;101344.53;5094900;28;20047;-71
2021/11/11 10:52:27;;;;;;;13.82;8.50;;;;;;;7.55;100.00;101345.56;5094469;28;20081;-77
2021/11/11 10:55:18;;;;;;;17.83;9.90;;;;;;;7.56;100.00;101341.13;5089001;28;20135;-74
2021/11/11 10:57:51;;;;;;;17.65;9.90;;;;;;;7.57;100.00;101346.38;5090836;28;20052;-73
2021/11/11 11:00:34;;;;;;;17.65;9.88;;;;;;;7.64;100.00;101345.28;5077454;28;20043;-73
2021/11/11 11:03:05;;;;;;;;;;;;;;;7.67;100.00;101347.84;5094367;28;20051;-74
2021/11/11 11:05:38;;;;;;;14.05;8.68;;;;;;;7.67;100.00;101346.97;5093082;28;19961;-78
2021/11/11 11:08:10;;;;;;;15.20;9.30;;;;;;;7.64;100.00;101347.94;5094555;28;20116;-74
2021/11/11 11:10:41;;;;;;;14.20;9.02;;;;;;;7.58;100.00;101331.31;5094433;28;20147;-79
2021/11/11 11:13:13;;;;;;;15.70;10.48;;;;;;;7.67;100.00;101329.25;5094012;28;20047;-73
2021/11/11 11:15:48;;;;;;;18.42;11.05;;;;;;;7.78;100.00;101325.38;5094048;28;20047;-74
2021/11/11 11:18:21;;;;;;;17.52;9.90;;;;;;;7.83;100.00;101321.69;5094327;28;20704;-70
2021/11/11 11:20:49;;;;;;;17.23;10.03;;;;;;;7.87;100.00;101325.97;5093228;28;20151;-69
2021/11/11 11:23:23;;;;;;;17.73;9.43;;;;;;;7.85;100.00;101316.31;5093350;28;20397;-67
2021/11/11 11:25:59;;;;;;;19.30;10.60;;;;;;;7.78;100.00;101315.63;5092583;28;20059;-71
2021/11/11 11:28:42;;;;;;;18.25;10.38;;;;;;;7.84;100.00;101309.28;5090675;28;20395;-81
2021/11/11 11:31:11;;;;;;;17.70;9.55;;;;;;;7.85;100.00;101306.56;5092988;28;20392;-78
2021/11/11 11:33:45;;;;;;;18.55;11.02;;;;;;;7.65;100.00;101314.28;5093241;28;20047;-75
2021/11/11 11:36:17;;;;;;;19.35;10.52;;;;;;;7.79;100.00;101301.44;5092780;28;20105;-84
2021/11/11 11:38:55;;;;;;;20.70;11.55;;;;;;;7.77;100.00;101303.28;5090559;28;20489;-75
2021/11/11 11:41:28;;;;;;;19.83;10.85;;;;;;;7.72;100.00;101303.44;5093569;28;20401;-71
2021/11/11 11:44:15;;;;;;;16.52;9.40;;;;;;;7.72;100.00;101294.56;5092965;28;20040;-72